Time;durP1;ratioP1;P1;durP2;ratioP2;P2;SDS_P1;SDS_P2;PMS_P1;PMS_P2;Temp;Humidity;BMP_temperature;BMP_pressure;BME280_temperature;BME280_humidity;BME280_pressure;Samples;Min_cycle;Max_cycle;Signal;HPM_P1;HPM_P2
2021/11/08 00:01:18;;;;;;;13.60;6.92;;;;;;;14.60;100.00;100929.16;1748511;81;21084;-66
2021/11/08 00:03:47;;;;;;;15.63;7.62;;;;;;;14.57;100.00;100927.97;1744271;80;21044;-65
2021/11/08 00:06:15;;;;;;;10.32;6.33;;;;;;;14.60;100.00;100929.16;1746631;80;21186;-66
2021/11/08 00:08:44;;;;;;;13.58;7.25;;;;;;;14.60;100.00;100950.75;1747570;81;20939;-67
2021/11/08 00:11:10;;;;;;;16.87;7.50;;;;;;;14.57;100.00;100934.71;1740407;81;21037;-67
2021/11/08 00:13:37;;;;;;;12.25;6.85;;;;;;;14.55;100.00;100921.77;1741848;79;21091;-67
2021/11/08 00:21:18;;;;;;;15.78;6.45;;;;;;;14.48;100.00;100912.24;1739365;81;21056;-67
2021/11/08 00:23:42;;;;;;;16.10;6.58;;;;;;;14.49;100.00;100911.30;1738023;80;21107;-67
2021/11/08 00:26:09;;;;;;;16.12;6.33;;;;;;;14.46;100.00;100910.06;1746598;80;21070;-67
2021/11/08 00:28:37;;;;;;;12.55;6.65;;;;;;;14.42;100.00;100909.82;1733220;80;21076;-66
2021/11/08 00:31:04;;;;;;;15.85;7.10;;;;;;;14.46;100.00;100891.19;1732262;81;21751;-66
2021/11/08 00:33:32;;;;;;;14.90;6.58;;;;;;;14.46;100.00;100885.79;1744453;80;21019;-65
2021/11/08 00:36:00;;;;;;;15.28;6.87;;;;;;;14.43;100.00;100879.20;1737650;81;21003;-66
2021/11/08 00:38:28;;;;;;;14.50;6.50;;;;;;;14.41;100.00;100882.45;1737959;80;21028;-66
2021/11/08 00:40:54;;;;;;;16.23;6.80;;;;;;;14.38;100.00;100870.47;1744374;80;21060;-66
2021/11/08 00:43:22;;;;;;;16.37;6.60;;;;;;;14.37;100.00;100870.07;1742720;80;21446;-66
2021/11/08 00:45:49;;;;;;;13.22;5.97;;;;;;;14.38;100.00;100896.09;1787395;79;21034;-66
2021/11/08 00:48:19;;;;;;;15.28;6.78;;;;;;;14.37;100.00;100890.30;1786933;79;21033;-66
2021/11/08 00:50:44;;;;;;;18.48;7.28;;;;;;;14.35;100.00;100884.11;1787142;79;21058;-65
2021/11/08 00:53:11;;;;;;;17.85;7.78;;;;;;;14.37;100.00;100888.95;1784488;78;21551;-66
2021/11/08 00:55:41;;;;;;;14.95;6.60;;;;;;;14.38;100.00;100884.84;1786858;78;21916;-66
2021/11/08 00:58:13;;;;;;;16.57;6.60;;;;;;;14.39;100.00;100865.02;1784055;79;21050;-65
2021/11/08 01:00:37;;;;;;;10.65;6.47;;;;;;;14.37;100.00;100833.66;1788799;79;21517;-65
2021/11/08 01:03:06;;;;;;;9.68;6.25;;;;;;;14.36;100.00;100858.88;1781889;78;21560;-66
2021/11/08 01:05:33;;;;;;;13.30;7.05;;;;;;;14.30;100.00;100842.06;1786479;78;21474;-66
2021/11/08 01:08:01;;;;;;;20.10;7.17;;;;;;;14.25;100.00;100825.20;1783373;79;21151;-66
2021/11/08 01:10:27;;;;;;;12.80;6.42;;;;;;;14.19;100.00;100832.27;1779888;77;21083;-66
2021/11/08 01:12:54;;;;;;;15.38;6.65;;;;;;;14.16;100.00;100835.11;1788920;77;21075;-66
2021/11/08 01:15:21;;;;;;;12.45;6.20;;;;;;;14.14;100.00;100803.31;1781664;78;21057;-66
2021/11/08 01:17:48;;;;;;;13.80;7.10;;;;;;;14.14;100.00;100839.71;1789103;79;21517;-66
2021/11/08 01:20:16;;;;;;;18.55;7.60;;;;;;;14.09;100.00;100861.98;1782602;79;21063;-65
2021/11/08 01:22:42;;;;;;;18.90;7.25;;;;;;;14.01;100.00;100832.20;1788552;77;21045;-66
2021/11/08 01:25:11;;;;;;;12.78;7.00;;;;;;;13.98;100.00;100862.50;1788881;79;21478;-67
2021/11/08 01:27:50;;;;;;;19.07;6.85;;;;;;;13.92;100.00;100851.52;1784403;78;21117;-66
2021/11/08 01:30:19;;;;;;;16.02;7.08;;;;;;;13.88;100.00;100841.35;1786300;77;21044;-67
2021/11/08 01:32:57;;;;;;;12.65;6.53;;;;;;;13.83;100.00;100858.22;1781929;79;21081;-67
2021/11/08 01:35:42;;;;;;;14.18;6.80;;;;;;;13.80;100.00;100844.00;1785796;78;21427;-65
2021/11/08 01:38:02;;;;;;;15.20;7.17;;;;;;;13.78;100.00;100852.63;1787295;79;21044;-66
2021/11/08 01:40:22;;;;;;;22.75;8.05;;;;;;;13.73;100.00;100846.14;1795727;78;20981;-66
2021/11/08 01:42:49;;;;;;;16.10;7.37;;;;;;;13.67;100.00;100848.64;1804663;78;22464;-66
2021/11/08 01:45:15;;;;;;;18.07;7.80;;;;;;;13.64;100.00;100847.44;1804418;78;21125;-65
2021/11/08 01:47:42;;;;;;;16.30;7.12;;;;;;;13.65;100.00;100850.53;1804550;78;21083;-66
2021/11/08 01:50:09;;;;;;;20.12;6.97;;;;;;;13.63;100.00;100834.91;1807186;78;21030;-66
2021/11/08 01:52:36;;;;;;;19.35;7.53;;;;;;;13.64;100.00;100798.95;1806380;78;20998;-67
2021/11/08 01:55:04;;;;;;;16.70;7.10;;;;;;;13.64;100.00;100816.45;1806786;78;21087;-66
2021/11/08 01:57:31;;;;;;;17.60;7.53;;;;;;;13.65;100.00;100847.84;1745761;81;21474;-65
2021/11/08 02:00:00;;;;;;;13.40;7.33;;;;;;;13.65;100.00;100859.96;1765860;78;21599;-67
2021/11/08 02:02:26;;;;;;;18.92;8.35;;;;;;;13.64;100.00;100867.64;1767999;79;21564;-67
2021/11/08 02:04:53;;;;;;;19.70;7.83;;;;;;;13.63;100.00;100821.44;1752299;80;21060;-67
2021/11/08 02:07:20;;;;;;;16.07;8.13;;;;;;;13.64;100.00;100833.97;1775021;79;21099;-66
2021/11/08 02:09:46;;;;;;;16.15;7.55;;;;;;;13.65;100.00;100843.80;1772479;78;21087;-66
2021/11/08 02:12:15;;;;;;;17.15;7.95;;;;;;;13.65;100.00;100819.55;1758606;80;21064;-66
2021/11/08 02:14:41;;;;;;;15.43;6.83;;;;;;;13.69;100.00;100825.19;1760215;80;21044;-66
2021/11/08 02:17:08;;;;;;;18.40;7.22;;;;;;;13.69;100.00;100810.37;1776729;79;21498;-66
2021/11/08 02:19:36;;;;;;;16.07;7.03;;;;;;;13.72;100.00;100811.57;1772216;79;20925;-66
2021/11/08 02:22:05;;;;;;;20.23;7.70;;;;;;;13.74;100.00;100780.52;1767324;80;21139;-67
2021/11/08 02:24:32;;;;;;;17.10;7.17;;;;;;;13.76;100.00;100824.44;1765726;79;21020;-66
2021/11/08 02:26:59;;;;;;;17.32;7.65;;;;;;;13.72;100.00;100818.30;1768330;80;21135;-66
2021/11/08 02:29:25;;;;;;;19.37;8.00;;;;;;;13.70;100.00;100813.47;1747374;80;20954;-66
2021/11/08 02:31:53;;;;;;;18.45;7.35;;;;;;;13.68;100.00;100825.25;1748006;80;21525;-66
2021/11/08 02:34:21;;;;;;;27.95;8.80;;;;;;;13.69;100.00;100829.23;1759319;80;21975;-67
2021/11/08 02:36:47;;;;;;;13.43;7.60;;;;;;;13.72;100.00;100846.59;1768353;80;21110;-58
2021/11/08 02:39:25;;;;;;;21.23;7.33;;;;;;;13.73;100.00;100851.53;1737116;80;21071;-65
2021/11/08 02:41:48;;;;;;;16.87;8.05;;;;;;;13.73;100.00;100867.20;1786563;79;22201;-66
2021/11/08 02:44:14;;;;;;;15.43;7.50;;;;;;;13.74;100.00;100848.74;1799323;78;21450;-66
2021/11/08 02:46:42;;;;;;;17.20;7.90;;;;;;;13.72;100.00;100858.72;1789776;77;21048;-66
2021/11/08 02:49:12;;;;;;;14.65;7.65;;;;;;;13.67;100.00;100871.54;1738728;80;21102;-66
2021/11/08 02:51:43;;;;;;;15.45;7.45;;;;;;;13.63;100.00;100894.19;1797442;78;21442;-67
2021/11/08 02:54:15;;;;;;;16.93;7.47;;;;;;;13.67;100.00;100888.16;1784580;78;21067;-66
2021/11/08 02:56:35;;;;;;;14.47;7.25;;;;;;;13.70;100.00;100870.50;1797586;78;21072;-66
2021/11/08 02:59:03;;;;;;;22.02;7.78;;;;;;;13.71;100.00;100885.27;1792394;78;21048;-66
2021/11/08 03:01:30;;;;;;;19.00;8.10;;;;;;;13.73;100.00;100902.23;1794568;78;21032;-66
2021/11/08 03:03:58;;;;;;;14.05;7.53;;;;;;;13.72;100.00;100905.88;1794235;78;21276;-66
2021/11/08 03:06:34;;;;;;;21.37;7.72;;;;;;;13.74;100.00;100912.55;1792322;77;21067;-67
2021/11/08 03:09:18;;;;;;;16.90;7.55;;;;;;;13.74;100.00;100889.16;1788301;78;21044;-66
2021/11/08 03:11:45;;;;;;;18.12;8.10;;;;;;;13.73;100.00;100883.38;1788245;78;21769;-66
2021/11/08 03:14:17;;;;;;;19.62;8.35;;;;;;;13.72;100.00;100895.09;1794143;78;21040;-66
2021/11/08 03:16:49;;;;;;;14.03;7.25;;;;;;;13.74;100.00;100913.41;1792616;77;21009;-66
2021/11/08 03:19:30;;;;;;;17.05;8.80;;;;;;;13.77;100.00;100904.78;1802473;78;21046;-66
2021/11/08 03:21:56;;;;;;;19.27;8.23;;;;;;;13.77;100.00;100905.67;1793650;78;21095;-67
2021/11/08 03:27:29;;;;;;;13.43;8.08;;;;;;;13.77;100.00;100877.84;1798598;78;21112;-67
2021/11/08 03:29:53;;;;;;;14.25;8.45;;;;;;;13.74;100.00;100874.34;1798276;78;21333;-67
2021/11/08 03:32:21;;;;;;;16.65;9.40;;;;;;;13.72;100.00;100856.02;1787538;78;21044;-67
2021/11/08 03:35:01;;;;;;;19.82;8.65;;;;;;;13.73;100.00;100876.63;1795984;77;21271;-66
2021/11/08 03:37:28;;;;;;;21.25;9.63;;;;;;;13.70;100.00;100857.03;1785130;78;21125;-67
2021/11/08 03:39:56;;;;;;;21.15;10.18;;;;;;;13.66;100.00;100845.55;1788684;78;21464;-67
2021/11/08 03:42:22;;;;;;;21.00;9.68;;;;;;;13.64;100.00;100834.42;1786153;79;20923;-67
2021/11/08 03:44:49;;;;;;;19.00;9.83;;;;;;;13.62;100.00;100833.17;1788345;78;21048;-68
2021/11/08 03:47:16;;;;;;;30.02;10.65;;;;;;;13.64;100.00;100823.65;1787257;79;21072;-67
2021/11/08 03:49:43;;;;;;;18.77;10.63;;;;;;;13.68;100.00;100835.56;1781687;78;21855;-67
2021/11/08 03:52:09;;;;;;;20.45;10.35;;;;;;;13.73;100.00;100836.22;1789946;78;20999;-67
2021/11/08 03:54:36;;;;;;;18.00;10.25;;;;;;;13.75;100.00;100832.97;1783972;77;21510;-65
2021/11/08 03:57:05;;;;;;;16.48;9.68;;;;;;;13.75;100.00;100837.02;1785834;79;21070;-66
2021/11/08 03:59:32;;;;;;;16.70;10.13;;;;;;;13.77;100.00;100863.02;1789141;78;21052;-66
2021/11/08 04:01:59;;;;;;;21.23;9.95;;;;;;;13.74;100.00;100875.69;1782040;78;21657;-66
2021/11/08 04:04:26;;;;;;;21.17;9.73;;;;;;;13.70;100.00;100864.66;1782166;77;20987;-65
2021/11/08 04:06:53;;;;;;;23.10;10.15;;;;;;;13.70;100.00;100879.48;1751906;81;21494;-67
2021/11/08 04:09:20;;;;;;;22.13;10.45;;;;;;;13.69;100.00;100892.55;1751954;80;21474;-66
2021/11/08 04:11:47;;;;;;;20.23;10.63;;;;;;;13.66;100.00;100902.13;1723178;80;21340;-67
2021/11/08 04:14:15;;;;;;;21.00;10.50;;;;;;;13.65;100.00;100892.75;1750694;80;21116;-66
2021/11/08 04:16:44;;;;;;;21.17;10.65;;;;;;;13.63;100.00;100903.61;1718049;81;21080;-67
2021/11/08 04:19:11;;;;;;;18.32;10.65;;;;;;;13.63;100.00;100899.57;1723990;82;21074;-67
2021/11/08 04:21:39;;;;;;;21.35;10.05;;;;;;;13.64;100.00;100908.05;1751660;80;21040;-66
2021/11/08 04:24:06;;;;;;;21.17;11.20;;;;;;;13.63;100.00;100910.34;1747320;80;21044;-67
2021/11/08 04:26:34;;;;;;;22.22;10.85;;;;;;;13.65;100.00;100900.83;1727162;82;21110;-67
2021/11/08 04:29:02;;;;;;;19.50;11.15;;;;;;;13.67;100.00;100892.20;1726620;81;21068;-67
2021/11/08 04:31:34;;;;;;;23.77;11.12;;;;;;;13.68;100.00;100881.37;1745485;80;21479;-67
2021/11/08 04:34:03;;;;;;;18.82;10.58;;;;;;;13.70;100.00;100894.30;1716919;81;21044;-66
2021/11/08 04:37:08;;;;;;;24.92;12.13;;;;;;;13.73;100.00;100890.59;1749654;80;21032;-66
2021/11/08 04:42:18;;;;;;;25.45;12.00;;;;;;;13.78;100.00;100894.41;1729864;80;24593;-67
2021/11/08 04:45:12;;;;;;;25.55;11.95;;;;;;;13.83;100.00;100891.05;1755057;80;21076;-67
2021/11/08 04:52:55;;;;;;;19.25;11.03;;;;;;;13.92;100.00;100874.44;1745137;79;21968;-65
2021/11/08 04:56:13;;;;;;;27.75;11.88;;;;;;;13.97;100.00;100863.44;1723922;81;21112;-65
2021/11/08 05:30:10;;;;;;;18.80;11.22;;;;;;;14.14;100.00;100893.63;1729946;80;21083;-66
2021/11/08 05:32:41;;;;;;;21.55;10.68;;;;;;;14.13;100.00;100885.14;1732053;81;21109;-68
2021/11/08 05:35:10;;;;;;;20.55;10.58;;;;;;;14.15;100.00;100888.64;1731296;81;21040;-67
2021/11/08 05:37:38;;;;;;;20.52;11.10;;;;;;;14.16;100.00;100893.97;1731235;80;21119;-66
2021/11/08 05:40:17;;;;;;;22.17;11.18;;;;;;;14.16;100.00;100899.82;1733961;80;21123;-66
2021/11/08 05:42:36;;;;;;;19.60;11.28;;;;;;;14.16;100.00;100914.66;1730051;81;21536;-67
2021/11/08 05:45:05;;;;;;;20.17;11.93;;;;;;;14.17;100.00;100912.36;1730627;81;21164;-67
2021/11/08 05:47:32;;;;;;;25.97;12.03;;;;;;;14.17;100.00;100905.16;1786351;78;21488;-66
2021/11/08 05:50:00;;;;;;;23.95;11.83;;;;;;;14.18;100.00;100911.41;1788938;77;21080;-66
2021/11/08 05:52:26;;;;;;;19.60;10.50;;;;;;;14.17;100.00;100919.09;1785952;79;20992;-66
2021/11/08 05:54:53;;;;;;;18.95;11.10;;;;;;;14.19;100.00;100921.24;1789473;78;21076;-66
2021/11/08 06:00:08;;;;;;;22.37;11.73;;;;;;;14.20;100.00;100918.09;1784565;77;20972;-67
2021/11/08 06:51:30;;;;;;;21.25;10.50;;;;;;;14.53;100.00;100964.60;1790440;79;21106;-69
2021/11/08 06:54:01;;;;;;;19.30;9.98;;;;;;;14.58;100.00;100970.19;1786392;78;21782;-66
2021/11/08 06:56:29;;;;;;;24.02;10.10;;;;;;;14.63;100.00;100983.46;1790222;79;21040;-67
2021/11/08 06:58:57;;;;;;;20.20;10.53;;;;;;;14.64;100.00;100969.02;1785391;79;21076;-67
2021/11/08 07:01:23;;;;;;;17.80;10.55;;;;;;;14.64;100.00;100953.29;1787154;78;21114;-67
2021/11/08 07:03:50;;;;;;;17.57;9.95;;;;;;;14.68;100.00;100964.33;1785001;79;21542;-67
2021/11/08 07:06:16;;;;;;;16.75;9.55;;;;;;;14.70;100.00;100951.17;1788219;79;21119;-66
2021/11/08 07:08:43;;;;;;;18.42;10.40;;;;;;;14.73;100.00;100952.89;1791674;79;21028;-67
2021/11/08 07:11:10;;;;;;;18.32;9.83;;;;;;;14.74;100.00;100970.34;1784000;78;21071;-67
2021/11/08 07:13:37;;;;;;;18.60;10.15;;;;;;;14.75;100.00;100970.73;1788681;78;21064;-68
2021/11/08 07:16:04;;;;;;;20.77;9.10;;;;;;;14.76;100.00;100964.88;1783003;79;21049;-66
2021/11/08 07:18:31;;;;;;;18.98;9.55;;;;;;;14.77;100.00;100963.04;1789751;78;21262;-66
2021/11/08 07:20:57;;;;;;;20.95;10.68;;;;;;;14.80;100.00;100974.56;1786726;79;21037;-66
2021/11/08 07:23:24;;;;;;;23.65;10.85;;;;;;;14.82;100.00;100968.61;1794353;79;21067;-68
2021/11/08 07:25:51;;;;;;;18.55;9.80;;;;;;;14.85;100.00;100957.66;1785465;77;21526;-66
2021/11/08 07:28:17;;;;;;;24.23;10.43;;;;;;;14.92;100.00;100951.95;1788740;79;21784;-67
2021/11/08 07:30:46;;;;;;;22.30;9.83;;;;;;;15.01;100.00;100960.95;1791123;79;21000;-67
2021/11/08 07:33:16;;;;;;;20.82;10.03;;;;;;;15.10;100.00;100965.87;1786073;78;21111;-66
2021/11/08 07:35:44;;;;;;;20.77;10.32;;;;;;;15.12;100.00;100967.16;1789174;79;21389;-66
2021/11/08 07:38:10;;;;;;;23.73;11.10;;;;;;;15.13;100.00;100967.56;1790788;79;21135;-66
2021/11/08 07:40:37;;;;;;;32.67;13.22;;;;;;;15.12;100.00;100974.77;1791046;79;21850;-65
2021/11/08 07:43:04;;;;;;;24.00;12.18;;;;;;;15.16;100.00;100981.79;1790443;79;21111;-66
2021/11/08 07:45:31;;;;;;;25.52;11.57;;;;;;;15.22;100.00;100974.32;1783949;78;21111;-65
2021/11/08 07:47:58;;;;;;;21.17;10.23;;;;;;;15.29;100.00;100967.64;1786450;79;21064;-65
2021/11/08 07:50:25;;;;;;;19.32;9.80;;;;;;;15.35;100.00;100953.80;1724907;80;21549;-65
2021/11/08 07:52:52;;;;;;;17.48;9.53;;;;;;;15.46;100.00;100954.14;1748203;80;21669;-66
2021/11/08 07:55:20;;;;;;;23.62;10.38;;;;;;;15.52;100.00;100949.36;1727960;81;21910;-65
2021/11/08 07:57:47;;;;;;;20.60;9.40;;;;;;;15.54;100.00;100964.55;1750570;80;21037;-66
2021/11/08 08:00:14;;;;;;;19.27;9.48;;;;;;;15.58;100.00;100957.13;1794781;78;21076;-65
2021/11/08 08:02:44;;;;;;;19.75;10.08;;;;;;;15.65;100.00;100959.92;1790110;79;21044;-66
2021/11/08 08:05:11;;;;;;;20.05;10.25;;;;;;;15.68;100.00;100959.77;1795383;78;21592;-66
2021/11/08 08:07:39;;;;;;;18.15;9.73;;;;;;;15.72;100.00;100973.50;1791160;79;21056;-66
2021/11/08 08:10:07;;;;;;;20.95;10.18;;;;;;;15.79;100.00;100981.27;1793907;79;21018;-66
2021/11/08 08:12:36;;;;;;;17.25;9.35;;;;;;;15.85;99.66;100983.67;1795825;79;21024;-68
2021/11/08 08:15:04;;;;;;;17.12;10.10;;;;;;;15.88;98.96;100976.28;1786921;79;21123;-66
2021/11/08 08:17:31;;;;;;;19.90;9.98;;;;;;;15.91;98.43;100983.37;1792314;78;21788;-67
2021/11/08 08:19:58;;;;;;;17.00;10.55;;;;;;;15.88;98.14;100984.86;1785759;79;21099;-66
2021/11/08 08:22:27;;;;;;;21.00;10.72;;;;;;;15.87;98.17;100984.46;1788831;79;21040;-66
2021/11/08 08:24:53;;;;;;;23.85;11.83;;;;;;;15.88;98.24;100990.27;1790288;78;21151;-66
2021/11/08 08:27:20;;;;;;;21.65;11.53;;;;;;;15.89;98.30;100986.63;1789733;79;21044;-66
2021/11/08 08:29:47;;;;;;;17.20;9.88;;;;;;;15.90;98.03;100976.22;1793400;79;21109;-67
2021/11/08 08:32:14;;;;;;;19.82;10.53;;;;;;;15.92;97.74;100968.89;1788247;78;21664;-64
2021/11/08 08:34:42;;;;;;;20.65;10.05;;;;;;;15.91;97.46;100963.09;1796183;78;21015;-67
2021/11/08 08:37:09;;;;;;;23.22;11.05;;;;;;;15.89;97.26;100958.25;1789052;79;21761;-65
2021/11/08 08:39:37;;;;;;;19.48;10.45;;;;;;;15.89;97.42;100950.13;1791044;79;21147;-67
2021/11/08 08:42:05;;;;;;;21.37;10.90;;;;;;;15.94;97.36;100939.94;1795114;78;21707;-67
2021/11/08 08:44:33;;;;;;;23.92;11.65;;;;;;;15.98;97.40;100933.39;1801751;78;21341;-67
2021/11/08 08:47:00;;;;;;;24.47;10.78;;;;;;;16.06;97.05;100930.77;1798311;78;22204;-67
2021/11/08 08:49:27;;;;;;;20.23;10.88;;;;;;;16.10;96.57;100920.17;1801431;77;21063;-68
2021/11/08 08:51:55;;;;;;;19.12;10.58;;;;;;;16.14;96.59;100906.40;1804242;77;21093;-67
2021/11/08 08:54:22;;;;;;;23.70;12.25;;;;;;;16.24;96.63;100897.25;1804789;77;21099;-65
2021/11/08 08:56:52;;;;;;;20.52;11.40;;;;;;;16.35;96.22;100875.50;1799958;78;21067;-68
2021/11/08 08:59:21;;;;;;;22.13;11.03;;;;;;;16.44;95.65;100874.95;1799549;78;21079;-67
2021/11/08 09:01:49;;;;;;;25.30;12.85;;;;;;;16.51;95.23;100866.89;1798060;77;22539;-67
2021/11/08 09:04:16;;;;;;;23.60;12.60;;;;;;;16.60;94.97;100866.84;1796452;77;21067;-66
2021/11/08 09:06:43;;;;;;;24.57;11.70;;;;;;;16.70;94.45;100867.17;1798229;78;21932;-66
2021/11/08 09:09:10;;;;;;;20.00;11.03;;;;;;;16.75;93.72;100886.71;1802438;78;20945;-66
2021/11/08 09:11:37;;;;;;;21.02;11.40;;;;;;;16.78;93.07;100909.55;1800219;78;21047;-66
2021/11/08 09:14:04;;;;;;;23.90;11.03;;;;;;;16.77;92.67;100936.23;1800667;78;21133;-65
2021/11/08 09:16:34;;;;;;;21.70;10.08;;;;;;;16.74;92.30;100950.80;1801241;77;21031;-65
2021/11/08 09:19:01;;;;;;;22.93;10.98;;;;;;;16.70;92.03;100945.67;1796841;77;21207;-67
2021/11/08 09:21:29;;;;;;;15.60;10.20;;;;;;;16.66;91.81;100935.50;1804080;78;21066;-66
2021/11/08 09:23:57;;;;;;;19.62;10.23;;;;;;;16.64;91.48;100931.12;1802240;77;21004;-67
2021/11/08 09:26:25;;;;;;;17.23;10.45;;;;;;;16.60;91.42;100909.64;1801840;78;21818;-66
2021/11/08 09:28:53;;;;;;;25.35;10.63;;;;;;;16.60;91.51;100892.05;1803771;78;21052;-65
2021/11/08 09:31:21;;;;;;;23.20;11.00;;;;;;;16.59;91.31;100884.90;1799583;78;39048;-66
2021/11/08 09:33:53;;;;;;;19.80;10.53;;;;;;;16.58;91.34;100893.12;1796315;78;21019;-64
2021/11/08 09:36:21;;;;;;;20.30;10.70;;;;;;;16.58;91.25;100885.86;1800737;78;21492;-65
2021/11/08 09:38:55;;;;;;;17.85;10.50;;;;;;;16.57;91.13;100884.12;1798856;77;21039;-64
2021/11/08 09:41:20;;;;;;;22.25;11.15;;;;;;;16.53;90.93;100894.73;1804997;78;21047;-64
2021/11/08 09:43:47;;;;;;;20.50;10.63;;;;;;;16.48;91.20;100884.66;1791969;78;21753;-65
2021/11/08 09:46:15;;;;;;;19.67;10.85;;;;;;;16.47;91.35;100880.22;1786981;78;21052;-68
2021/11/08 09:48:42;;;;;;;23.25;11.48;;;;;;;16.50;91.26;100881.85;1788704;78;21111;-66
2021/11/08 09:51:13;;;;;;;19.67;11.12;;;;;;;16.54;91.06;100889.71;1790432;78;22667;-65
2021/11/08 09:53:41;;;;;;;18.75;10.93;;;;;;;16.58;90.66;100890.42;1794711;78;20956;-64
2021/11/08 09:56:09;;;;;;;19.42;10.85;;;;;;;16.58;90.49;100897.19;1792707;78;22322;-62
2021/11/08 09:58:36;;;;;;;18.70;10.35;;;;;;;16.58;90.45;100897.19;1790910;78;21478;-64
2021/11/08 10:01:10;;;;;;;22.70;12.43;;;;;;;16.56;90.47;100899.97;1793143;78;21097;-69
2021/11/08 10:03:37;;;;;;;25.45;11.57;;;;;;;16.57;90.40;100904.41;1786350;78;21032;-66
2021/11/08 10:06:06;;;;;;;22.65;10.65;;;;;;;16.58;90.34;100905.30;1784529;78;21580;-67
2021/11/08 10:08:38;;;;;;;22.60;11.73;;;;;;;16.57;90.37;100911.19;1783112;78;21909;-66
2021/11/08 10:11:09;;;;;;;16.40;10.75;;;;;;;16.56;90.19;100920.27;1786928;78;21355;-67
2021/11/08 10:13:36;;;;;;;20.08;10.35;;;;;;;16.54;90.27;100931.66;1783230;78;21143;-66
2021/11/08 10:16:15;;;;;;;20.92;11.25;;;;;;;16.53;90.36;100919.55;1783443;78;21103;-65
2021/11/08 10:18:46;;;;;;;16.32;10.13;;;;;;;16.56;90.42;100928.84;1786203;78;20945;-66
2021/11/08 10:21:23;;;;;;;19.10;10.85;;;;;;;16.58;90.31;100939.99;1786059;78;21522;-65
2021/11/08 10:23:52;;;;;;;20.72;11.08;;;;;;;16.62;90.16;100951.52;1785953;78;21387;-66
2021/11/08 10:26:23;;;;;;;24.70;12.07;;;;;;;16.64;89.83;100935.17;1784563;79;21040;-66
2021/11/08 10:28:55;;;;;;;18.70;11.00;;;;;;;16.63;89.72;100919.91;1785840;79;21031;-66
2021/11/08 10:31:28;;;;;;;18.85;11.28;;;;;;;16.60;89.45;100927.23;1786080;78;21154;-67
2021/11/08 10:33:57;;;;;;;17.42;10.70;;;;;;;16.58;89.45;100921.05;1787310;78;21135;-66
2021/11/08 10:36:24;;;;;;;20.92;12.07;;;;;;;16.59;89.47;100920.08;1782685;79;21090;-66
2021/11/08 10:38:54;;;;;;;28.62;12.75;;;;;;;16.57;89.30;100909.83;1787242;78;21591;-66
2021/11/08 10:41:24;;;;;;;22.62;12.43;;;;;;;16.54;89.54;100919.48;1783756;78;21421;-67
2021/11/08 10:43:54;;;;;;;24.95;12.25;;;;;;;16.52;89.66;100928.17;1783497;78;22289;-67
2021/11/08 10:46:28;;;;;;;20.55;11.10;;;;;;;16.49;89.75;100920.23;1776349;78;21110;-66
2021/11/08 10:48:59;;;;;;;19.80;11.88;;;;;;;16.45;89.94;100928.11;1774048;78;21460;-65
2021/11/08 10:51:29;;;;;;;19.35;10.90;;;;;;;16.44;90.24;100945.31;1774860;78;21554;-67
2021/11/08 10:54:04;;;;;;;21.87;11.53;;;;;;;16.46;90.45;100954.21;1778938;79;21064;-66
2021/11/08 10:56:47;;;;;;;28.42;12.55;;;;;;;16.50;90.38;100951.75;1765324;79;21044;-65
2021/11/08 10:59:20;;;;;;;23.42;11.97;;;;;;;16.53;90.13;100939.39;1774137;79;21574;-67
2021/11/08 11:01:59;;;;;;;20.70;11.30;;;;;;;16.56;89.93;100937.86;1778278;78;21376;-65
2021/11/08 11:04:46;;;;;;;23.98;12.63;;;;;;;16.60;89.55;100939.92;1732439;79;20985;-66
2021/11/08 11:07:27;;;;;;;25.43;12.28;;;;;;;16.58;89.14;100925.60;1777491;78;21444;-66
2021/11/08 11:10:10;;;;;;;25.15;12.65;;;;;;;16.55;88.73;100952.35;1765562;79;21072;-67
2021/11/08 11:12:39;;;;;;;24.90;12.90;;;;;;;16.50;88.58;100957.16;1709472;82;21764;-65
2021/11/08 11:15:10;;;;;;;23.83;12.60;;;;;;;16.41;88.73;100963.08;1751275;79;21084;-67
2021/11/08 11:17:51;;;;;;;21.73;12.73;;;;;;;16.36;88.87;100970.13;1778709;79;20999;-67
2021/11/08 11:20:21;;;;;;;24.47;14.23;;;;;;;16.33;89.13;100976.56;1779090;78;21316;-66
2021/11/08 11:23:05;;;;;;;26.30;13.25;;;;;;;16.28;89.33;100971.89;1778288;78;21045;-66
2021/11/08 11:25:37;;;;;;;25.77;13.03;;;;;;;16.25;89.54;100982.89;1734264;80;21425;-65
2021/11/08 11:28:06;;;;;;;25.85;13.58;;;;;;;16.25;89.66;100981.54;1734216;80;21018;-67
2021/11/08 11:30:39;;;;;;;25.92;13.05;;;;;;;16.28;89.57;100984.53;1776783;78;20997;-68
2021/11/08 11:33:10;;;;;;;22.35;12.07;;;;;;;16.27;89.44;100974.67;1773625;78;21072;-60
2021/11/08 11:35:49;;;;;;;23.20;13.72;;;;;;;16.19;89.23;100962.92;1778536;79;20925;-60
2021/11/08 11:38:20;;;;;;;24.85;12.50;;;;;;;16.04;89.22;100964.18;1776399;79;22834;-60
2021/11/08 11:43:27;;;;;;;22.77;13.03;;;;;;;15.74;90.25;100944.55;1819959;77;28117;-67
2021/11/08 11:45:55;;;;;;;22.58;12.80;;;;;;;15.60;90.66;100936.34;1791040;78;21020;-60
2021/11/08 11:48:29;;;;;;;20.55;12.58;;;;;;;15.54;90.88;100927.18;1790590;78;21899;-68
2021/11/08 11:50:56;;;;;;;33.25;14.70;;;;;;;15.52;91.26;100920.52;1789149;78;20953;-68
2021/11/08 11:53:25;;;;;;;33.20;15.55;;;;;;;15.54;91.48;100925.83;1793620;78;20995;-66
2021/11/08 11:55:52;;;;;;;27.13;13.88;;;;;;;15.60;91.69;100930.93;1797293;78;21605;-66
2021/11/08 11:58:20;;;;;;;25.25;12.60;;;;;;;15.72;91.79;100931.61;1794372;78;22968;-66
2021/11/08 12:00:50;;;;;;;26.50;14.03;;;;;;;15.88;91.41;100926.73;1791496;78;21635;-65
2021/11/08 12:03:17;;;;;;;22.85;13.30;;;;;;;16.01;91.00;100921.05;1793164;78;20948;-65
2021/11/08 12:05:44;;;;;;;21.12;12.68;;;;;;;16.13;90.33;100921.34;1789444;78;20995;-60
2021/11/08 12:08:13;;;;;;;22.85;12.58;;;;;;;16.24;89.70;100913.48;1795761;79;21151;-59
2021/11/08 12:10:50;;;;;;;20.50;12.70;;;;;;;16.37;89.03;100908.75;1798222;78;21068;-61
2021/11/08 12:13:21;;;;;;;25.80;12.78;;;;;;;16.49;88.41;100905.35;1793246;78;21130;-60
2021/11/08 12:15:48;;;;;;;30.85;15.93;;;;;;;16.59;87.59;100917.38;1795093;78;21007;-60
2021/11/08 12:18:17;;;;;;;30.35;14.83;;;;;;;16.63;86.81;100918.55;1791521;78;21044;-66
2021/11/08 12:20:51;;;;;;;34.10;13.55;;;;;;;16.61;86.36;100925.42;1789689;78;21060;-60
2021/11/08 12:23:25;;;;;;;25.40;14.20;;;;;;;16.58;86.27;100929.66;1789381;78;21485;-59
2021/11/08 12:25:52;;;;;;;170.60;111.68;;;;;;;16.56;86.00;100922.08;1789209;78;21111;-66
2021/11/08 12:28:23;;;;;;;268.02;175.35;;;;;;;16.54;85.33;100910.01;1790254;78;21043;-60
2021/11/08 12:31:05;;;;;;;68.95;44.18;;;;;;;16.52;84.99;100907.87;1787793;78;21034;-59
2021/11/08 12:33:37;;;;;;;37.33;21.10;;;;;;;16.56;84.50;100909.44;1779894;78;21429;-59
2021/11/08 12:36:16;;;;;;;24.30;13.78;;;;;;;16.58;83.59;100902.09;1792327;78;21450;-59
2021/11/08 12:39:07;;;;;;;20.68;13.65;;;;;;;16.53;83.29;100887.08;1792308;78;21773;-66
2021/11/08 12:41:50;;;;;;;24.55;13.15;;;;;;;16.40;83.21;100895.03;1789777;78;21127;-67
2021/11/08 12:44:21;;;;;;;25.95;14.28;;;;;;;16.21;83.98;100897.92;1774583;79;21103;-67
2021/11/08 12:46:56;;;;;;;25.95;13.30;;;;;;;16.10;84.66;100909.35;1779891;79;20973;-60
2021/11/08 12:49:42;;;;;;;25.30;12.78;;;;;;;15.98;85.48;100906.84;1778848;79;22089;-67
2021/11/08 12:52:14;;;;;;;23.35;13.90;;;;;;;15.92;86.09;100924.28;1776809;79;21210;-66
2021/11/08 12:55:10;;;;;;;21.25;13.95;;;;;;;15.89;86.56;100939.32;1771458;79;21550;-67
2021/11/08 12:57:54;;;;;;;22.93;15.15;;;;;;;15.83;86.85;100945.03;1776199;79;22378;-67
2021/11/08 13:00:26;;;;;;;25.55;15.63;;;;;;;15.74;87.13;100931.05;1776347;79;21052;-61